Time;durP1;ratioP1;P1;durP2;ratioP2;P2;SDS_P1;SDS_P2;PMS_P1;PMS_P2;Temp;Humidity;BMP_temperature;BMP_pressure;BME280_temperature;BME280_humidity;BME280_pressure;Samples;Min_cycle;Max_cycle;Signal;HPM_P1;HPM_P2
2022/11/08 05:25:19;;;;;;;2.33;2.08;;;;;;;4.67;100.00;99937.88;5114385;28;20430;-75
2022/11/08 05:27:44;;;;;;;1.48;1.10;;;;;;;4.60;100.00;99937.63;5113286;28;20050;-74
2022/11/08 05:30:10;;;;;;;5.15;2.88;;;;;;;4.65;100.00;99930.09;5112802;28;20135;-74
2022/11/08 05:32:35;;;;;;;2.40;1.20;;;;;;;4.61;100.00;99937.47;5111055;28;20044;-75
2022/11/08 05:35:00;;;;;;;2.03;1.58;;;;;;;4.68;100.00;99931.63;5108388;28;20042;-73
2022/11/08 05:37:26;;;;;;;3.15;1.90;;;;;;;4.66;100.00;99930.94;5109266;28;20100;-74
2022/11/08 05:39:51;;;;;;;2.00;1.17;;;;;;;4.60;100.00;99919.97;5109270;28;20111;-72
2022/11/08 05:42:17;;;;;;;1.95;1.50;;;;;;;4.74;100.00;99920.50;5108881;28;20040;-73
2022/11/08 05:44:42;;;;;;;1.85;1.25;;;;;;;4.76;100.00;99907.97;5108774;28;20048;-73
2022/11/08 05:47:07;;;;;;;1.92;1.35;;;;;;;4.79;100.00;99915.63;5108902;28;20062;-74
2022/11/08 05:49:33;;;;;;;2.13;1.60;;;;;;;4.78;100.00;99908.69;5108989;28;20301;-74
2022/11/08 05:51:58;;;;;;;1.77;1.33;;;;;;;4.77;100.00;99910.50;5108570;28;20042;-75
2022/11/08 05:54:23;;;;;;;0.98;0.98;;;;;;;4.79;100.00;99905.06;5108852;28;20031;-73
2022/11/08 05:56:49;;;;;;;4.68;1.45;;;;;;;4.90;100.00;99904.91;5108819;28;20727;-74
2022/11/08 05:59:15;;;;;;;1.27;0.93;;;;;;;4.95;100.00;99893.88;5108763;28;20040;-74
2022/11/08 06:01:40;;;;;;;1.42;0.98;;;;;;;4.92;100.00;99884.47;5108627;28;20476;-75
2022/11/08 06:04:05;;;;;;;3.85;1.10;;;;;;;4.90;100.00;99889.88;5108688;28;20039;-74
2022/11/08 06:06:31;;;;;;;0.85;0.73;;;;;;;4.98;100.00;99877.75;5108561;28;20039;-74
2022/11/08 06:08:56;;;;;;;2.95;1.10;;;;;;;5.02;100.00;99882.63;5108622;28;20031;-74
2022/11/08 06:11:24;;;;;;;1.85;1.10;;;;;;;4.95;100.00;99889.44;5108103;28;20040;-74
2022/11/08 06:13:50;;;;;;;;;;;;;;;4.94;100.00;99889.59;5108889;28;20032;-74
2022/11/08 06:16:17;;;;;;;1.77;1.13;;;;;;;4.85;100.00;99893.94;5108334;28;19912;-74
2022/11/08 06:18:43;;;;;;;1.42;0.85;;;;;;;4.74;100.00;99896.75;5108418;28;20067;-73
2022/11/08 06:21:13;;;;;;;1.33;1.05;;;;;;;4.80;100.00;99889.09;5107897;28;20067;-74
2022/11/08 06:23:39;;;;;;;0.65;0.65;;;;;;;4.73;100.00;99900.38;5108332;28;20040;-73
2022/11/08 06:26:05;;;;;;;1.95;1.10;;;;;;;4.72;100.00;99896.06;5108139;28;20059;-73
2022/11/08 06:28:30;;;;;;;1.50;0.98;;;;;;;4.66;100.00;99899.28;5108433;28;20500;-73
2022/11/08 06:31:00;;;;;;;2.53;1.23;;;;;;;4.72;100.00;99909.25;5107770;28;20036;-73
2022/11/08 06:33:26;;;;;;;2.58;1.27;;;;;;;4.73;100.00;99919.66;5097410;28;20067;-73
2022/11/08 06:35:51;;;;;;;1.73;1.20;;;;;;;4.76;100.00;99926.44;5094422;28;20067;-74
2022/11/08 06:38:17;;;;;;;1.50;1.10;;;;;;;4.79;100.00;99907.72;5094402;28;20086;-63
2022/11/08 06:40:43;;;;;;;1.13;0.90;;;;;;;4.80;100.00;99912.84;5092806;28;20127;-62
2022/11/08 06:43:12;;;;;;;3.22;1.52;;;;;;;4.82;100.00;99918.78;5094323;28;20121;-64
2022/11/08 06:45:38;;;;;;;1.98;1.25;;;;;;;4.87;100.00;99921.00;5094153;28;20461;-63
2022/11/08 06:48:05;;;;;;;2.15;1.42;;;;;;;4.88;100.00;99923.50;5094361;28;20039;-70
2022/11/08 06:50:32;;;;;;;2.67;1.40;;;;;;;4.89;100.00;99929.63;5093756;28;20885;-71
2022/11/08 06:53:06;;;;;;;1.48;1.20;;;;;;;4.87;100.00;99935.03;5094346;28;20765;-71
2022/11/08 06:55:32;;;;;;;2.95;1.55;;;;;;;4.87;100.00;99936.84;5093981;28;20046;-70
2022/11/08 06:57:57;;;;;;;2.17;1.48;;;;;;;4.87;100.00;99934.19;5094054;28;20567;-71
2022/11/08 07:00:24;;;;;;;1.65;1.48;;;;;;;4.90;100.00;99926.84;5093702;28;20134;-71
2022/11/08 07:03:00;;;;;;;4.82;1.52;;;;;;;4.98;100.00;99923.47;5093471;28;20097;-71
2022/11/08 07:05:27;;;;;;;1.77;1.55;;;;;;;5.05;100.00;99927.19;5092225;28;20527;-71
2022/11/08 07:07:53;;;;;;;2.28;1.30;;;;;;;5.11;100.00;99931.06;5095974;28;20040;-71
2022/11/08 07:10:24;;;;;;;2.17;1.42;;;;;;;5.14;100.00;99922.84;5096075;28;20154;-71
2022/11/08 07:13:01;;;;;;;2.30;1.88;;;;;;;5.13;100.00;99921.19;5096423;28;20063;-71
2022/11/08 07:15:27;;;;;;;2.03;1.33;;;;;;;5.25;100.00;99924.47;5100400;28;20132;-71
2022/11/08 07:17:52;;;;;;;2.08;1.40;;;;;;;5.31;100.00;99937.09;5095535;28;20484;-71
2022/11/08 07:20:18;;;;;;;3.00;1.50;;;;;;;5.37;100.00;99939.97;5094511;28;20040;-71
2022/11/08 07:22:43;;;;;;;2.45;1.42;;;;;;;5.42;100.00;99921.03;5093900;28;20109;-71
2022/11/08 07:25:08;;;;;;;1.38;1.25;;;;;;;5.45;100.00;99926.00;5093727;28;20486;-71
2022/11/08 07:27:34;;;;;;;2.08;1.40;;;;;;;5.51;100.00;99922.78;5093527;28;20085;-71
2022/11/08 07:29:59;;;;;;;2.55;1.45;;;;;;;5.57;100.00;99927.47;5093347;28;20032;-71
2022/11/08 07:32:25;;;;;;;1.45;1.35;;;;;;;5.60;100.00;99918.41;5093019;28;20071;-71
2022/11/08 07:34:50;;;;;;;2.00;1.75;;;;;;;5.67;100.00;99922.13;5093301;28;20446;-71
2022/11/08 07:37:16;;;;;;;1.63;1.38;;;;;;;5.78;100.00;99919.25;5093085;28;20050;-70
2022/11/08 07:39:41;;;;;;;2.33;1.42;;;;;;;5.78;100.00;99918.44;5093346;28;20067;-71
2022/11/08 07:42:07;;;;;;;5.20;1.88;;;;;;;5.87;100.00;99923.66;5091635;28;20040;-71
2022/11/08 07:44:34;;;;;;;3.08;1.88;;;;;;;5.90;100.00;99928.63;5090715;28;20047;-71
2022/11/08 07:46:59;;;;;;;3.65;1.83;;;;;;;5.97;100.00;99931.53;5091629;28;20043;-71
2022/11/08 07:49:24;;;;;;;3.33;1.90;;;;;;;6.02;100.00;99937.22;5092793;28;20058;-71
2022/11/08 07:51:50;;;;;;;4.38;2.40;;;;;;;6.06;100.00;99927.97;5092430;28;20068;-71
2022/11/08 07:54:16;;;;;;;1.75;1.45;;;;;;;6.12;100.00;99919.44;5092890;28;20036;-71
2022/11/08 07:56:41;;;;;;;2.92;2.17;;;;;;;6.18;100.00;99918.81;5091492;28;20052;-71
2022/11/08 07:59:06;;;;;;;2.97;2.05;;;;;;;6.25;100.00;99914.56;5091542;28;20089;-71
2022/11/08 08:01:32;;;;;;;3.88;1.98;;;;;;;6.31;100.00;99918.44;5091150;28;20407;-71
2022/11/08 08:03:57;;;;;;;2.05;1.55;;;;;;;6.41;100.00;99921.81;5092726;28;20043;-71
2022/11/08 08:06:23;;;;;;;2.10;1.42;;;;;;;6.46;100.00;99919.56;5092439;28;20059;-71
2022/11/08 08:08:49;;;;;;;2.78;1.67;;;;;;;6.53;100.00;99910.00;5091407;28;20036;-71
2022/11/08 08:11:14;;;;;;;2.60;1.77;;;;;;;6.63;100.00;99919.66;5092233;28;20044;-71
2022/11/08 08:13:40;;;;;;;2.60;1.67;;;;;;;6.71;100.00;99930.28;5092532;28;20070;-71
2022/11/08 08:16:05;;;;;;;2.25;1.65;;;;;;;6.76;100.00;99928.84;5092505;28;20130;-71
2022/11/08 08:18:31;;;;;;;3.97;1.77;;;;;;;6.83;100.00;99931.69;5092366;28;20042;-71
2022/11/08 08:20:57;;;;;;;4.30;1.90;;;;;;;6.93;100.00;99934.25;5091861;28;20493;-71
2022/11/08 08:23:22;;;;;;;5.93;2.25;;;;;;;7.04;100.00;99932.16;5092405;28;20570;-71
2022/11/08 08:25:48;;;;;;;3.15;2.03;;;;;;;7.14;100.00;99947.91;5092195;28;20105;-71
2022/11/08 08:28:13;;;;;;;4.28;1.67;;;;;;;7.23;100.00;99946.94;5092223;28;20127;-71
2022/11/08 08:30:39;;;;;;;3.30;2.28;;;;;;;7.38;100.00;99954.31;5090502;28;20076;-71
2022/11/08 08:33:11;;;;;;;8.40;2.30;;;;;;;7.49;100.00;99957.50;5092345;28;20121;-71
2022/11/08 08:35:38;;;;;;;3.53;2.03;;;;;;;7.61;100.00;99966.81;5092162;28;20039;-71
2022/11/08 08:38:05;;;;;;;4.30;2.00;;;;;;;7.73;100.00;99959.41;5092024;28;20032;-71
2022/11/08 08:40:31;;;;;;;2.83;2.07;;;;;;;7.86;100.00;99967.72;5090474;28;20326;-71
2022/11/08 08:43:00;;;;;;;3.67;2.05;;;;;;;8.00;100.00;99973.38;5092060;28;20136;-70
2022/11/08 08:45:28;;;;;;;3.22;2.08;;;;;;;8.11;100.00;99973.06;5091809;28;20063;-71
2022/11/08 08:47:55;;;;;;;4.75;2.20;;;;;;;8.18;100.00;99966.09;5091869;28;20032;-71
2022/11/08 08:50:21;;;;;;;4.80;3.10;;;;;;;8.30;100.00;99972.75;5090181;28;20527;-71
2022/11/08 08:52:47;;;;;;;2.63;2.28;;;;;;;8.41;100.00;99961.00;5091870;28;20538;-71
2022/11/08 08:55:13;;;;;;;3.60;2.30;;;;;;;8.50;100.00;99962.66;5090259;28;20051;-71
2022/11/08 08:57:46;;;;;;;4.03;2.50;;;;;;;8.72;100.00;99969.13;5091778;28;20036;-71
2022/11/08 09:00:13;;;;;;;4.28;2.63;;;;;;;8.90;100.00;99959.13;5091555;28;20113;-71
2022/11/08 09:02:39;;;;;;;5.05;2.75;;;;;;;9.11;100.00;99969.19;5090400;28;20028;-71
2022/11/08 09:05:04;;;;;;;4.45;2.67;;;;;;;9.44;100.00;99977.06;5091679;28;20039;-71
2022/11/08 09:07:30;;;;;;;5.88;2.80;;;;;;;9.89;100.00;99967.53;5091611;28;20071;-71
2022/11/08 09:09:55;;;;;;;2.17;1.90;;;;;;;10.24;100.00;99971.50;5090279;28;20058;-71
2022/11/08 09:12:21;;;;;;;3.78;2.00;;;;;;;10.56;100.00;99968.59;5091367;28;20667;-71
2022/11/08 09:14:47;;;;;;;5.53;2.17;;;;;;;11.02;100.00;99972.97;5091580;28;20031;-73
2022/11/08 09:17:12;;;;;;;4.03;2.30;;;;;;;11.41;100.00;99973.53;5091473;28;20088;-71
2022/11/08 09:19:37;;;;;;;2.90;1.92;;;;;;;11.63;97.85;99976.28;5091397;28;20048;-71
2022/11/08 09:22:03;;;;;;;4.78;2.08;;;;;;;11.85;95.52;99982.50;5089809;28;20500;-71
2022/11/08 09:24:28;;;;;;;3.42;1.80;;;;;;;11.91;93.36;99981.75;5091437;28;20040;-71
2022/11/08 09:26:54;;;;;;;2.63;1.98;;;;;;;11.93;93.22;99977.91;5091238;28;20055;-71
2022/11/08 09:29:19;;;;;;;4.32;1.88;;;;;;;11.99;93.97;99973.63;5091371;28;20040;-71
2022/11/08 09:31:44;;;;;;;2.13;1.92;;;;;;;12.02;95.65;99973.25;5072810;28;20036;-71
2022/11/08 09:34:10;;;;;;;2.35;1.40;;;;;;;12.10;87.14;99978.47;5091299;28;20485;-71
2022/11/08 09:36:35;;;;;;;1.83;1.38;;;;;;;12.21;85.05;99974.50;5091421;28;20048;-71
2022/11/08 09:39:01;;;;;;;6.15;1.40;;;;;;;12.28;86.18;99971.88;5091541;28;20085;-71
2022/11/08 09:41:45;;;;;;;1.67;1.30;;;;;;;12.68;83.92;99973.88;5091096;28;20040;-71
2022/11/08 09:44:20;;;;;;;2.38;1.20;;;;;;;12.81;84.11;99969.66;5091239;28;20461;-71
2022/11/08 09:46:56;;;;;;;1.15;1.05;;;;;;;12.90;84.14;99971.97;5091596;28;20051;-71
2022/11/08 09:49:27;;;;;;;1.65;1.20;;;;;;;13.03;82.82;99965.91;5091398;28;20043;-72
2022/11/08 09:51:52;;;;;;;4.00;1.85;;;;;;;13.26;82.90;99963.81;5090944;28;20089;-71
2022/11/08 09:54:25;;;;;;;1.88;1.27;;;;;;;13.70;81.88;99967.13;5091329;28;20143;-71
2022/11/08 09:56:53;;;;;;;2.47;1.00;;;;;;;14.13;79.11;99963.09;5089997;28;20044;-71
2022/11/08 09:59:37;;;;;;;2.05;1.40;;;;;;;14.72;77.77;99966.06;5091331;28;20036;-71
2022/11/08 10:02:12;;;;;;;1.52;1.20;;;;;;;14.74;70.80;99969.38;5091100;28;20032;-71
2022/11/08 10:04:38;;;;;;;1.75;1.00;;;;;;;14.64;72.79;99964.44;5091127;28;20032;-72
2022/11/08 10:07:28;;;;;;;2.38;1.38;;;;;;;14.69;73.21;99958.47;5091189;28;20439;-71
2022/11/08 10:10:16;;;;;;;1.60;1.20;;;;;;;14.57;74.56;99966.28;5093694;28;20024;-72
2022/11/08 10:12:57;;;;;;;2.08;1.20;;;;;;;14.65;74.95;99958.84;5094789;28;20032;-72
2022/11/08 10:15:45;;;;;;;1.90;1.17;;;;;;;14.42;74.99;99953.06;5094669;28;20028;-76
2022/11/08 10:18:47;;;;;;;1.75;1.17;;;;;;;14.52;73.75;99942.78;5094731;28;20105;-72
2022/11/08 10:21:19;;;;;;;2.55;1.30;;;;;;;14.56;73.71;99945.88;5094234;28;20032;-72
2022/11/08 10:23:46;;;;;;;2.38;1.27;;;;;;;14.29;74.24;99935.13;5094610;28;20130;-72
2022/11/08 10:26:16;;;;;;;2.03;1.25;;;;;;;14.53;72.61;99935.56;5094448;28;20031;-72
2022/11/08 10:28:50;;;;;;;4.55;1.67;;;;;;;15.15;70.80;99936.94;5094604;28;20032;-72
2022/11/08 10:31:18;;;;;;;1.70;1.00;;;;;;;16.01;66.36;99939.28;5092802;28;20137;-72
2022/11/08 10:33:53;;;;;;;2.05;1.27;;;;;;;16.96;61.13;99940.00;5094268;28;20122;-72
2022/11/08 10:36:24;;;;;;;1.52;1.10;;;;;;;17.67;57.80;99940.44;5094077;28;20751;-72
2022/11/08 10:39:02;;;;;;;2.47;1.23;;;;;;;18.48;55.04;99934.53;5094125;28;20036;-72
2022/11/08 10:41:44;;;;;;;1.88;1.00;;;;;;;19.20;52.00;99926.22;5093887;28;20075;-72
2022/11/08 10:44:16;;;;;;;2.78;1.25;;;;;;;19.96;49.63;99927.78;5094152;28;20024;-73
2022/11/08 10:46:43;;;;;;;1.33;0.88;;;;;;;20.98;47.52;99926.75;5093979;28;20040;-73
2022/11/08 10:49:15;;;;;;;;;;;;;;;21.83;45.81;99933.53;5094632;28;20044;-72
2022/11/08 10:51:42;;;;;;;2.83;1.15;;;;;;;21.28;45.65;99923.66;5093793;28;20316;-72
2022/11/08 10:54:07;;;;;;;;;;;;;;;20.55;46.25;99927.47;5094466;28;20077;-70
2022/11/08 10:56:53;;;;;;;0.90;0.80;;;;;;;21.57;45.17;99920.75;5093935;28;19989;-72
2022/11/08 10:59:29;;;;;;;2.17;1.00;;;;;;;22.41;42.87;99920.28;5093989;28;20044;-70
2022/11/08 11:01:55;;;;;;;1.75;1.50;;;;;;;22.81;43.83;99921.66;5093607;28;20043;-72
2022/11/08 11:04:27;;;;;;;1.20;1.10;;;;;;;23.45;40.84;99907.91;5093922;28;20032;-71
2022/11/08 11:06:52;;;;;;;1.58;1.20;;;;;;;23.80;39.92;99904.53;5093524;28;20063;-72
2022/11/08 11:09:20;;;;;;;4.75;1.35;;;;;;;24.06;38.43;99913.50;5093843;28;20473;-71
2022/11/08 11:11:56;;;;;;;2.03;1.48;;;;;;;24.34;38.37;99902.16;5093373;28;20048;-71
2022/11/08 11:14:21;;;;;;;2.65;1.38;;;;;;;24.20;38.49;99887.44;5092372;28;20032;-71
2022/11/08 11:17:01;;;;;;;2.83;1.30;;;;;;;24.27;38.71;99895.31;5093582;28;20054;-72
2022/11/08 11:19:28;;;;;;;3.78;1.40;;;;;;;25.02;37.52;99893.59;5093802;28;20046;-74
2022/11/08 11:21:56;;;;;;;3.17;1.40;;;;;;;25.43;36.97;99898.94;5092156;28;20043;-71
2022/11/08 11:24:23;;;;;;;2.97;1.58;;;;;;;25.17;37.72;99896.31;5093877;28;20525;-73
2022/11/08 11:27:01;;;;;;;3.20;1.65;;;;;;;25.65;36.48;99899.38;5093632;28;20040;-72
2022/11/08 11:29:32;;;;;;;5.25;1.80;;;;;;;24.29;36.89;99888.50;5093548;28;20064;-74
2022/11/08 11:32:24;;;;;;;6.95;2.03;;;;;;;25.76;37.15;99899.34;5092757;28;20040;-74
2022/11/08 11:34:57;;;;;;;4.05;1.60;;;;;;;26.14;36.16;99890.34;5093488;28;20520;-75
2022/11/08 11:37:43;;;;;;;3.78;1.80;;;;;;;25.21;36.32;99888.41;5092843;28;20058;-73
2022/11/08 11:40:23;;;;;;;4.18;2.00;;;;;;;25.49;36.42;99878.72;5092840;28;20070;-74
2022/11/08 11:43:18;;;;;;;3.20;1.75;;;;;;;26.15;34.57;99870.16;5092835;28;20500;-76
2022/11/08 11:45:49;;;;;;;2.00;1.50;;;;;;;25.79;36.17;99872.31;5082626;28;20054;-75
2022/11/08 11:48:25;;;;;;;3.53;1.80;;;;;;;26.09;36.55;99870.47;5092782;28;20050;-74
2022/11/08 11:50:50;;;;;;;4.50;1.95;;;;;;;25.20;37.30;99869.59;5092578;28;20036;-75
2022/11/08 11:53:17;;;;;;;4.03;1.98;;;;;;;25.30;37.10;99859.47;5092926;28;20036;-74
2022/11/08 11:56:06;;;;;;;2.60;1.60;;;;;;;25.17;35.74;99860.91;5092779;28;20090;-75
2022/11/08 11:58:49;;;;;;;4.32;1.80;;;;;;;24.87;36.58;99859.06;5091459;28;20101;-74
2022/11/08 12:01:53;;;;;;;2.88;1.50;;;;;;;23.46;38.76;99853.28;5092313;28;20043;-75
2022/11/08 12:04:24;;;;;;;2.20;1.50;;;;;;;22.98;40.20;99847.13;5092728;28;20032;-73
2022/11/08 12:07:02;;;;;;;2.38;1.50;;;;;;;22.22;41.17;99852.03;5092443;28;20035;-74
2022/11/08 12:09:36;;;;;;;3.30;1.90;;;;;;;21.90;43.62;99843.84;5092588;28;20435;-74
2022/11/08 12:12:23;;;;;;;3.92;1.83;;;;;;;20.92;45.42;99857.34;5089379;28;20032;-74
2022/11/08 12:15:19;;;;;;;3.00;1.88;;;;;;;20.51;46.61;99848.66;5081074;28;20024;-75
2022/11/08 12:18:06;;;;;;;3.15;1.90;;;;;;;20.50;49.98;99851.63;5081849;28;20112;-74
2022/11/08 12:20:56;;;;;;;6.53;2.55;;;;;;;20.18;48.55;99848.66;5080725;28;20169;-74
2022/11/08 12:23:33;;;;;;;4.63;2.45;;;;;;;19.70;47.18;99840.00;5082545;28;20044;-73
2022/11/08 12:26:07;;;;;;;;;;;;;;;19.77;48.62;99835.28;5082595;28;20043;-73
2022/11/08 12:28:44;;;;;;;2.88;1.65;;;;;;;19.59;48.44;99835.47;5081679;28;19919;-73
2022/11/08 12:31:18;;;;;;;3.70;1.73;;;;;;;19.53;48.38;99844.50;5081726;28;20481;-73
2022/11/08 12:34:17;;;;;;;5.30;1.67;;;;;;;19.33;48.63;99838.72;5082795;28;20065;-73
2022/11/08 12:37:10;;;;;;;3.25;1.92;;;;;;;19.26;50.56;99833.47;5079811;28;20024;-72
2022/11/08 12:39:45;;;;;;;5.50;2.17;;;;;;;19.15;49.63;99824.34;5071981;28;20435;-73
2022/11/08 12:42:33;;;;;;;4.93;1.80;;;;;;;19.12;50.35;99815.91;5071393;28;20039;-73
2022/11/08 12:45:33;;;;;;;2.95;1.80;;;;;;;19.03;50.58;99806.53;5071693;28;20032;-72
2022/11/08 12:48:10;;;;;;;2.78;1.38;;;;;;;18.81;49.20;99812.56;5064045;28;20056;-73
2022/11/08 12:51:00;;;;;;;2.50;1.80;;;;;;;18.79;49.09;99813.88;5071285;28;20063;-74
2022/11/08 12:54:01;;;;;;;3.45;1.63;;;;;;;18.86;51.31;99810.00;5071551;28;20036;-74
2022/11/08 12:56:34;;;;;;;3.05;1.45;;;;;;;18.66;53.54;99810.38;5071502;28;20097;-72
2022/11/08 12:59:08;;;;;;;3.15;1.50;;;;;;;18.66;54.12;99801.44;5081119;28;20484;-74
2022/11/08 13:01:35;;;;;;;3.05;1.42;;;;;;;18.56;53.50;99799.31;5080313;28;20086;-74
2022/11/08 13:04:12;;;;;;;2.55;1.65;;;;;;;18.53;55.19;99791.72;5080889;28;20106;-73
2022/11/08 13:06:48;;;;;;;3.57;1.63;;;;;;;18.38;55.64;99785.97;5081018;28;20040;-73
2022/11/08 13:09:37;;;;;;;3.03;1.58;;;;;;;18.44;53.12;99793.94;5080748;28;20036;-72
2022/11/08 13:12:46;;;;;;;5.18;1.80;;;;;;;18.40;54.30;99787.38;5081662;28;20154;-73
2022/11/08 13:15:22;;;;;;;4.13;1.77;;;;;;;18.27;54.95;99794.91;5080464;28;20035;-72
2022/11/08 13:18:17;;;;;;;6.22;2.47;;;;;;;18.21;52.14;99791.25;5082250;28;20040;-74
2022/11/08 13:20:45;;;;;;;2.80;1.60;;;;;;;18.01;59.75;99780.81;5080896;28;20032;-73
2022/11/08 13:23:32;;;;;;;2.92;1.77;;;;;;;18.06;57.11;99791.72;5078648;28;20089;-74
2022/11/08 13:26:21;;;;;;;2.95;1.90;;;;;;;17.84;57.02;99798.69;5079526;28;20067;-73
2022/11/08 13:28:47;;;;;;;3.85;1.38;;;;;;;17.85;56.57;99789.56;5081897;28;20078;-74
2022/11/08 13:31:30;;;;;;;1.83;1.15;;;;;;;17.82;58.18;99801.63;5079675;28;20156;-73
2022/11/08 13:34:13;;;;;;;2.83;1.40;;;;;;;17.80;56.00;99792.97;5080728;28;20111;-73
2022/11/08 13:37:04;;;;;;;2.55;1.48;;;;;;;17.79;56.19;99798.56;5080999;28;20032;-73
2022/11/08 13:39:32;;;;;;;2.90;1.58;;;;;;;17.77;55.95;99800.69;5081886;28;20020;-73
2022/11/08 13:42:02;;;;;;;2.42;1.52;;;;;;;17.75;56.07;99802.78;5080286;28;20064;-73
2022/11/08 13:44:55;;;;;;;3.03;1.30;;;;;;;17.74;57.00;99799.28;5083850;28;20069;-73
2022/11/08 13:47:33;;;;;;;2.72;1.35;;;;;;;17.82;53.43;99788.16;5085047;28;20032;-73
2022/11/08 13:50:27;;;;;;;2.50;1.35;;;;;;;17.84;53.86;99791.44;5077513;28;20040;-72
2022/11/08 13:53:17;;;;;;;2.70;1.40;;;;;;;17.88;53.11;99791.81;5073857;28;20039;-73
2022/11/08 13:55:42;;;;;;;1.95;1.15;;;;;;;17.87;63.28;99796.38;5074986;28;20485;-73
2022/11/08 13:58:46;;;;;;;3.22;1.95;;;;;;;17.82;67.18;99798.94;5074839;28;20071;-73
2022/11/08 14:01:18;;;;;;;3.97;1.90;;;;;;;17.86;66.45;99786.63;5074114;28;20044;-73
2022/11/08 14:03:46;;;;;;;2.35;1.52;;;;;;;17.87;65.29;99785.59;5074872;28;20032;-73
2022/11/08 14:06:23;;;;;;;3.65;1.98;;;;;;;17.85;61.33;99787.69;5074700;28;20082;-73
2022/11/08 14:08:51;;;;;;;2.38;1.63;;;;;;;17.91;63.25;99791.34;5074737;28;20045;-73
2022/11/08 14:11:39;;;;;;;3.60;1.83;;;;;;;17.89;62.14;99782.66;5074360;28;20040;-73
2022/11/08 14:14:15;;;;;;;1.98;1.42;;;;;;;17.87;62.96;99771.31;5074538;28;20462;-73
2022/11/08 14:16:49;;;;;;;4.28;1.70;;;;;;;17.91;65.27;99775.16;5074533;28;20043;-73
2022/11/08 14:19:21;;;;;;;3.22;1.58;;;;;;;17.91;69.66;99780.56;5074499;28;20036;-73
2022/11/08 14:21:58;;;;;;;5.40;1.40;;;;;;;17.87;74.35;99769.44;5074131;28;20062;-74
2022/11/08 14:24:34;;;;;;;2.03;1.60;;;;;;;17.84;73.37;99775.28;5075126;28;20032;-73
2022/11/08 14:26:59;;;;;;;3.88;1.20;;;;;;;17.80;72.51;99768.72;5073359;28;20040;-73
2022/11/08 14:29:25;;;;;;;3.80;1.42;;;;;;;17.69;69.99;99756.03;5074317;28;20044;-73
2022/11/08 14:32:02;;;;;;;2.67;1.55;;;;;;;17.76;71.19;99762.16;5073994;28;20033;-73
2022/11/08 14:34:37;;;;;;;;;;;;;;;17.61;72.48;99769.81;5075086;28;20390;-73
2022/11/08 14:37:04;;;;;;;2.25;1.65;;;;;;;17.57;72.36;99772.16;5073164;28;19916;-73
2022/11/08 14:39:38;;;;;;;2.50;1.20;;;;;;;17.57;72.71;99764.06;5074293;28;20040;-73
2022/11/08 14:42:17;;;;;;;3.25;1.75;;;;;;;17.49;72.75;99760.88;5073764;28;20039;-75
2022/11/08 14:44:44;;;;;;;2.17;1.33;;;;;;;17.42;73.28;99746.72;5074257;28;20085;-75
2022/11/08 14:47:22;;;;;;;2.13;1.40;;;;;;;17.38;72.44;99749.03;5074099;28;20036;-75
2022/11/08 14:49:48;;;;;;;6.38;1.45;;;;;;;17.29;74.17;99745.03;5074143;28;20074;-76
2022/11/08 14:52:17;;;;;;;6.25;1.45;;;;;;;17.15;77.40;99754.31;5073712;28;20064;-75
2022/11/08 14:54:45;;;;;;;4.13;1.90;;;;;;;17.03;76.85;99751.59;5072164;28;20044;-74
2022/11/08 14:57:30;;;;;;;3.63;1.70;;;;;;;17.03;76.03;99757.81;5073777;28;20032;-75
2022/11/08 14:59:56;;;;;;;2.30;1.70;;;;;;;16.90;78.19;99766.03;5073812;28;20024;-75
2022/11/08 15:02:22;;;;;;;5.57;1.70;;;;;;;16.81;80.38;99767.38;5073653;28;20555;-74
2022/11/08 15:04:48;;;;;;;3.83;1.85;;;;;;;16.69;81.99;99763.75;5073765;28;20074;-75
2022/11/08 15:07:18;;;;;;;4.68;1.52;;;;;;;16.61;81.61;99764.06;5073650;28;20032;-74
2022/11/08 15:09:43;;;;;;;2.58;1.67;;;;;;;16.55;80.72;99766.59;5073794;28;20033;-74
2022/11/08 15:12:18;;;;;;;2.30;1.63;;;;;;;16.43;82.07;99757.66;5073314;28;20040;-74
2022/11/08 15:15:04;;;;;;;2.97;1.40;;;;;;;16.36;83.56;99761.44;5072287;28;20123;-74
2022/11/08 15:17:35;;;;;;;3.85;1.67;;;;;;;16.04;86.72;99758.03;5071833;28;20052;-74
2022/11/08 15:20:05;;;;;;;5.43;1.90;;;;;;;16.12;86.08;99744.34;5073296;28;20052;-75
2022/11/08 15:22:33;;;;;;;3.17;1.80;;;;;;;15.80;87.08;99752.44;5072998;28;20126;-75
2022/11/08 15:25:28;;;;;;;6.63;2.13;;;;;;;15.82;87.34;99745.00;5073235;28;20425;-74
2022/11/08 15:27:56;;;;;;;2.55;1.90;;;;;;;15.72;87.31;99745.50;5071994;28;20036;-75
2022/11/08 15:30:35;;;;;;;3.53;1.77;;;;;;;15.64;88.19;99747.59;5072920;28;20116;-75
2022/11/08 15:33:02;;;;;;;5.07;2.60;;;;;;;15.66;88.14;99740.19;5073213;28;20063;-74
2022/11/08 15:35:35;;;;;;;3.97;2.07;;;;;;;15.55;88.56;99746.22;5071789;28;20040;-75
2022/11/08 15:38:20;;;;;;;4.00;2.50;;;;;;;15.47;88.96;99739.25;5073093;28;20740;-73
2022/11/08 15:40:51;;;;;;;5.13;2.28;;;;;;;15.41;90.50;99732.06;5072716;28;20040;-72
2022/11/08 15:43:36;;;;;;;4.13;2.55;;;;;;;15.33;90.84;99735.00;5073037;28;20478;-73
2022/11/08 15:46:04;;;;;;;5.35;2.17;;;;;;;15.32;90.81;99726.16;5072853;28;20123;-72
2022/11/08 15:48:30;;;;;;;3.92;2.17;;;;;;;15.15;91.50;99719.66;5072899;28;20040;-73
2022/11/08 15:50:56;;;;;;;4.63;1.65;;;;;;;15.05;93.22;99727.31;5072518;28;20028;-72
2022/11/08 15:53:24;;;;;;;3.63;2.22;;;;;;;14.97;93.97;99728.41;5072611;28;20036;-73
2022/11/08 15:56:00;;;;;;;3.15;1.88;;;;;;;14.83;94.38;99729.50;5071322;28;20040;-72
2022/11/08 15:58:31;;;;;;;2.72;1.88;;;;;;;14.71;96.17;99720.47;5072672;28;20068;-73
2022/11/08 16:00:58;;;;;;;3.90;1.70;;;;;;;14.60;95.97;99730.81;5072256;28;20040;-72
2022/11/08 16:03:24;;;;;;;5.47;1.90;;;;;;;14.48;97.30;99721.81;5072487;28;20529;-72
2022/11/08 16:05:49;;;;;;;5.38;2.20;;;;;;;14.35;97.26;99728.00;5071580;28;20041;-72
2022/11/08 16:08:15;;;;;;;6.45;2.75;;;;;;;14.25;98.27;99714.22;5072482;28;20078;-71
2022/11/08 16:10:46;;;;;;;4.78;2.00;;;;;;;14.07;100.00;99727.41;5072077;28;20063;-72
2022/11/08 16:13:20;;;;;;;4.18;2.60;;;;;;;14.13;99.52;99731.94;5072380;28;20146;-72
2022/11/08 16:15:46;;;;;;;5.50;2.63;;;;;;;13.90;100.00;99729.72;5072228;28;20482;-72
2022/11/08 16:18:13;;;;;;;6.85;2.60;;;;;;;13.88;100.00;99725.59;5072219;28;20490;-73
2022/11/08 16:20:38;;;;;;;6.95;1.88;;;;;;;13.96;100.00;99717.38;5070411;28;20037;-72
2022/11/08 16:23:09;;;;;;;4.22;2.20;;;;;;;13.69;100.00;99725.41;5071998;28;20346;-65
2022/11/08 16:25:39;;;;;;;6.38;2.47;;;;;;;13.66;100.00;99720.47;5071848;28;20044;-65
2022/11/08 16:28:13;;;;;;;5.88;2.50;;;;;;;13.48;100.00;99721.06;5071997;28;20086;-65
2022/11/08 16:30:38;;;;;;;2.33;1.92;;;;;;;13.44;100.00;99714.50;5071596;28;20060;-65
2022/11/08 16:33:28;;;;;;;3.05;2.03;;;;;;;13.46;100.00;99715.09;5071900;28;20047;-65
2022/11/08 16:35:56;;;;;;;6.72;2.55;;;;;;;13.28;100.00;99712.19;5071687;28;20064;-66
2022/11/08 16:38:28;;;;;;;5.75;2.25;;;;;;;13.13;100.00;99720.38;5071675;28;20032;-65
2022/11/08 16:40:54;;;;;;;4.85;2.25;;;;;;;13.03;100.00;99718.06;5071242;28;20378;-65
2022/11/08 16:43:20;;;;;;;4.47;2.00;;;;;;;12.95;100.00;99717.44;5071806;28;20024;-65
2022/11/08 16:45:45;;;;;;;4.05;2.15;;;;;;;12.80;100.00;99716.78;5071719;28;20128;-65
2022/11/08 16:48:16;;;;;;;5.80;2.50;;;;;;;12.75;100.00;99715.53;5071633;28;20040;-65
2022/11/08 16:50:42;;;;;;;5.03;2.40;;;;;;;12.67;100.00;99718.38;5071349;28;20043;-65
2022/11/08 16:53:15;;;;;;;3.25;2.10;;;;;;;12.63;100.00;99718.97;5071503;28;20032;-63
2022/11/08 16:55:41;;;;;;;5.13;2.08;;;;;;;12.59;100.00;99715.06;5071543;28;20051;-65
2022/11/08 16:58:06;;;;;;;3.97;2.20;;;;;;;12.51;100.00;99726.72;5071510;28;20041;-64
2022/11/08 17:00:32;;;;;;;4.03;2.75;;;;;;;12.40;100.00;99722.78;5071030;28;20508;-64
2022/11/08 17:02:57;;;;;;;5.22;2.40;;;;;;;12.37;100.00;99733.00;5071400;28;20056;-65
2022/11/08 17:05:24;;;;;;;4.50;2.42;;;;;;;12.35;100.00;99730.56;5071321;28;20102;-65
2022/11/08 17:07:51;;;;;;;5.72;2.30;;;;;;;12.28;100.00;99729.69;5071124;28;20486;-65
2022/11/08 17:10:25;;;;;;;4.32;2.13;;;;;;;12.30;100.00;99740.16;5070775;28;20047;-64
2022/11/08 17:12:51;;;;;;;6.25;2.88;;;;;;;12.25;100.00;99743.41;5071336;28;20429;-65
2022/11/08 17:15:20;;;;;;;8.18;2.70;;;;;;;12.20;100.00;99748.53;5071046;28;20490;-65
2022/11/08 17:17:45;;;;;;;8.35;2.90;;;;;;;12.09;100.00;99741.88;5070970;28;20032;-65
2022/11/08 17:20:14;;;;;;;5.78;3.20;;;;;;;12.20;100.00;99737.88;5070976;28;20508;-65